Time;durP1;ratioP1;P1;durP2;ratioP2;P2;SDS_P1;SDS_P2;PMS_P1;PMS_P2;Temp;Humidity;BMP_temperature;BMP_pressure;BME280_temperature;BME280_humidity;BME280_pressure;Samples;Min_cycle;Max_cycle;Signal;HPM_P1;HPM_P2
2023/10/03 00:00:49;;;;;;;116.23;91.93;;;;;22.70;100107.00;;;;2539909;23;20428;-59
2023/10/03 00:01:50;;;;;;;114.97;89.70;;;;;22.70;100111.00;;;;2528584;23;20839;-57
2023/10/03 00:02:54;;;;;;;114.80;89.07;;;;;22.60;100108.00;;;;2548598;23;20209;-58
2023/10/03 00:03:54;;;;;;;115.97;92.20;;;;;22.60;100109.00;;;;2549376;23;20264;-59
2023/10/03 00:04:55;;;;;;;114.50;89.90;;;;;22.60;100107.00;;;;2540231;23;20198;-58
2023/10/03 00:05:56;;;;;;;108.20;84.20;;;;;22.60;100103.00;;;;2540971;23;20202;-58
2023/10/03 00:06:57;;;;;;;113.83;87.67;;;;;22.60;100104.00;;;;2524231;23;21120;-58
2023/10/03 00:08:04;;;;;;;106.78;86.78;;;;;22.60;100100.00;;;;2540670;23;20264;-59
2023/10/03 00:09:06;;;;;;;117.63;89.55;;;;;22.60;100095.00;;;;2547229;23;20209;-58
2023/10/03 00:10:08;;;;;;;113.90;89.70;;;;;22.60;100097.00;;;;2551824;23;20201;-58
2023/10/03 00:11:16;;;;;;;111.90;86.97;;;;;22.60;100090.00;;;;2553155;23;20200;-58
2023/10/03 00:12:17;;;;;;;110.90;86.45;;;;;22.60;100092.00;;;;2537726;23;20197;-58
2023/10/03 00:13:19;;;;;;;110.83;88.67;;;;;22.60;100089.00;;;;2551812;23;20193;-58
2023/10/03 00:14:19;;;;;;;109.25;87.72;;;;;22.10;100098.00;;;;2552816;23;21014;-57
2023/10/03 00:15:24;;;;;;;109.10;85.90;;;;;22.60;100079.00;;;;2552995;23;20185;-58
2023/10/03 00:16:24;;;;;;;105.15;85.53;;;;;22.60;100087.00;;;;2552737;23;20309;-59
2023/10/03 00:17:24;;;;;;;103.53;84.50;;;;;22.60;100078.00;;;;2538632;23;20189;-58
2023/10/03 00:18:25;;;;;;;110.60;85.10;;;;;22.60;100082.00;;;;2548045;23;20304;-57
2023/10/03 00:19:25;;;;;;;105.97;85.13;;;;;22.60;100078.00;;;;2552283;23;20201;-58
2023/10/03 00:20:25;;;;;;;108.10;81.80;;;;;22.60;100069.00;;;;2553260;23;20204;-58
2023/10/03 00:21:27;;;;;;;98.70;81.83;;;;;22.60;100073.00;;;;2552174;23;20228;-59
2023/10/03 00:22:27;;;;;;;107.85;84.18;;;;;22.60;100086.00;;;;2537403;23;20265;-57
2023/10/03 00:23:28;;;;;;;102.40;81.40;;;;;22.60;100065.00;;;;2552978;23;20201;-58
2023/10/03 00:24:28;;;;;;;103.30;80.40;;;;;22.60;100077.00;;;;2552859;23;20248;-58
2023/10/03 00:25:30;;;;;;;102.43;77.87;;;;;22.60;100062.00;;;;2552886;23;20296;-59
2023/10/03 00:26:32;;;;;;;100.75;81.35;;;;;22.60;100058.00;;;;2552104;23;20268;-59
2023/10/03 00:27:35;;;;;;;98.57;75.40;;;;;22.60;100061.00;;;;2539025;23;20197;-58
2023/10/03 00:28:35;;;;;;;96.00;76.90;;;;;22.60;100053.00;;;;2536176;23;20230;-58
2023/10/03 00:29:36;;;;;;;102.50;78.63;;;;;22.60;100055.00;;;;2539584;23;20202;-58
2023/10/03 00:30:39;;;;;;;95.10;74.73;;;;;22.60;100067.00;;;;2552267;23;20204;-58
2023/10/03 00:31:40;;;;;;;95.03;74.88;;;;;22.60;99940.00;;;;2539839;23;20283;-59
2023/10/03 00:32:41;;;;;;;93.10;75.93;;;;;22.60;100042.00;;;;2549620;23;20616;-58
2023/10/03 00:33:42;;;;;;;97.32;76.00;;;;;22.60;100046.00;;;;2538888;23;20202;-58
2023/10/03 00:34:45;;;;;;;89.80;72.77;;;;;22.60;100044.00;;;;2540357;23;20199;-59
2023/10/03 00:35:47;;;;;;;96.88;74.78;;;;;22.60;100054.00;;;;2552594;23;20193;-59
2023/10/03 00:36:49;;;;;;;95.45;73.82;;;;;22.60;100061.00;;;;2538238;23;20202;-58
2023/10/03 00:37:52;;;;;;;95.90;72.28;;;;;22.60;100045.00;;;;2552896;23;20808;-58
2023/10/03 00:38:53;;;;;;;92.95;71.97;;;;;22.60;100048.00;;;;2534802;23;20190;-57
2023/10/03 00:39:53;;;;;;;95.53;72.97;;;;;22.60;100048.00;;;;2540481;23;20266;-58
2023/10/03 00:40:55;;;;;;;93.47;74.50;;;;;22.60;100043.00;;;;2553138;23;20200;-57
2023/10/03 00:41:56;;;;;;;91.95;71.13;;;;;22.60;100043.00;;;;2530060;23;20425;-58
2023/10/03 00:42:57;;;;;;;85.73;69.77;;;;;22.60;100049.00;;;;2552686;23;21040;-58
2023/10/03 00:44:03;;;;;;;83.32;67.65;;;;;22.60;100026.00;;;;2539084;23;20206;-58
2023/10/03 00:45:08;;;;;;;88.50;70.88;;;;;22.60;100032.00;;;;2536317;23;20194;-58
2023/10/03 00:46:08;;;;;;;86.75;66.30;;;;;22.60;100032.00;;;;2553639;23;20201;-58
2023/10/03 00:47:10;;;;;;;81.27;65.80;;;;;22.60;100036.00;;;;2538022;23;20259;-58
2023/10/03 00:48:11;;;;;;;87.97;69.85;;;;;22.60;100036.00;;;;2553621;23;20202;-58
2023/10/03 00:49:14;;;;;;;79.65;63.53;;;;;22.60;100023.00;;;;2551103;23;20439;-58
2023/10/03 00:50:16;;;;;;;79.78;64.70;;;;;22.60;100024.00;;;;2539647;23;20190;-58
2023/10/03 00:51:20;;;;;;;83.07;65.85;;;;;22.60;100036.00;;;;2540151;23;20236;-58
2023/10/03 00:52:20;;;;;;;84.72;67.75;;;;;22.60;100038.00;;;;2524771;23;20399;-58
2023/10/03 00:53:21;;;;;;;81.47;65.13;;;;;22.60;100039.00;;;;2516648;23;20297;-57
2023/10/03 00:54:21;;;;;;;79.80;62.70;;;;;22.60;100040.00;;;;2515436;23;20204;-57
2023/10/03 00:55:26;;;;;;;82.73;66.30;;;;;22.60;100031.00;;;;2528329;23;20432;-58
2023/10/03 00:56:26;;;;;;;88.75;66.95;;;;;22.60;100031.00;;;;2516390;23;20207;-58
2023/10/03 00:57:26;;;;;;;83.97;63.07;;;;;22.60;100034.00;;;;2514309;23;20632;-59
2023/10/03 00:58:32;;;;;;;83.33;64.80;;;;;22.60;100027.00;;;;2553530;23;20537;-58
2023/10/03 00:59:33;;;;;;;78.05;62.95;;;;;22.60;100025.00;;;;2552138;23;20197;-58
2023/10/03 01:00:37;;;;;;;84.03;64.60;;;;;22.60;100031.00;;;;2552853;23;20193;-58
2023/10/03 01:01:38;;;;;;;77.75;62.40;;;;;22.60;100026.00;;;;2540087;23;20425;-57
2023/10/03 01:02:49;;;;;;;82.17;64.00;;;;;22.60;100028.00;;;;2525310;23;20211;-57
2023/10/03 01:03:49;;;;;;;80.10;63.90;;;;;22.60;100025.00;;;;2553009;23;20288;-58
2023/10/03 01:04:53;;;;;;;78.70;62.73;;;;;22.60;100022.00;;;;2553464;23;20204;-58
2023/10/03 01:05:59;;;;;;;80.40;62.75;;;;;22.60;100025.00;;;;2550522;23;20456;-59
2023/10/03 01:07:00;;;;;;;78.88;62.08;;;;;22.60;100021.00;;;;2525020;23;20271;-58
2023/10/03 01:08:00;;;;;;;73.23;57.57;;;;;22.60;100021.00;;;;2541355;23;20941;-60
2023/10/03 01:09:01;;;;;;;79.53;63.63;;;;;22.60;100018.00;;;;2550156;23;20433;-59
2023/10/03 01:10:04;;;;;;;80.43;61.67;;;;;22.60;100021.00;;;;2552414;23;20639;-58
2023/10/03 01:11:25;;;;;;;82.35;63.40;;;;;22.60;100022.00;;;;2549724;23;20264;-59
2023/10/03 01:12:25;;;;;;;77.50;58.60;;;;;22.60;100024.00;;;;2537838;23;20194;-58
2023/10/03 01:13:26;;;;;;;79.20;62.97;;;;;22.60;100015.00;;;;2552246;23;20257;-59
2023/10/03 01:14:27;;;;;;;78.75;61.80;;;;;22.60;100009.00;;;;2552834;23;20197;-60
2023/10/03 01:15:28;;;;;;;77.23;61.47;;;;;22.60;100011.00;;;;2549472;23;20194;-59
2023/10/03 01:16:36;;;;;;;77.30;61.72;;;;;22.50;100003.00;;;;2552775;23;20205;-59
2023/10/03 01:17:37;;;;;;;77.68;61.22;;;;;22.50;100003.00;;;;2525921;23;20194;-58
2023/10/03 01:18:39;;;;;;;79.63;61.38;;;;;22.60;99995.00;;;;2540564;23;20572;-58
2023/10/03 01:19:41;;;;;;;74.85;59.25;;;;;22.60;99993.00;;;;2537773;23;20283;-59
2023/10/03 01:20:41;;;;;;;78.27;59.67;;;;;22.60;99997.00;;;;2540049;23;20268;-58
2023/10/03 01:21:42;;;;;;;72.57;58.97;;;;;22.50;99988.00;;;;2519992;23;20262;-59
2023/10/03 01:22:46;;;;;;;76.83;59.40;;;;;22.50;99985.00;;;;2538699;23;20206;-58
2023/10/03 01:23:46;;;;;;;76.32;60.10;;;;;22.60;99994.00;;;;2540700;23;20198;-58
2023/10/03 01:24:46;;;;;;;76.90;60.77;;;;;22.60;99989.00;;;;2539769;23;20819;-59
2023/10/03 01:25:47;;;;;;;78.70;62.93;;;;;22.60;99992.00;;;;2540468;23;20989;-59
2023/10/03 01:26:47;;;;;;;72.20;59.10;;;;;22.60;99992.00;;;;2526293;23;20563;-58
2023/10/03 01:27:48;;;;;;;76.93;59.03;;;;;22.60;99983.00;;;;2540334;23;20198;-59
2023/10/03 01:28:48;;;;;;;74.30;60.00;;;;;22.60;99985.00;;;;2540468;23;20715;-58
2023/10/03 01:29:49;;;;;;;75.93;58.43;;;;;22.60;99985.00;;;;2536806;23;20461;-58
2023/10/03 01:30:51;;;;;;;67.60;55.17;;;;;22.60;99986.00;;;;2540555;23;20204;-57
2023/10/03 01:31:52;;;;;;;75.10;58.60;;;;;22.60;99985.00;;;;2526059;23;21067;-59
2023/10/03 01:32:53;;;;;;;72.70;57.33;;;;;22.50;99971.00;;;;2534302;23;20230;-59
2023/10/03 01:33:53;;;;;;;74.83;60.73;;;;;22.50;99968.00;;;;2527514;23;20431;-58
2023/10/03 01:34:53;;;;;;;78.57;58.83;;;;;22.50;99973.00;;;;2525347;23;20427;-58
2023/10/03 01:35:54;;;;;;;73.40;56.20;;;;;22.50;99970.00;;;;2540325;23;20277;-58
2023/10/03 01:36:54;;;;;;;70.80;55.20;;;;;22.60;99969.00;;;;2512373;23;20324;-58
2023/10/03 01:37:54;;;;;;;70.37;56.10;;;;;22.50;99975.00;;;;2527715;23;20199;-59
2023/10/03 01:38:55;;;;;;;70.37;54.73;;;;;22.50;99968.00;;;;2538881;23;25787;-58
2023/10/03 01:39:56;;;;;;;71.33;57.77;;;;;22.50;99964.00;;;;2540527;23;20637;-58
2023/10/03 01:41:00;;;;;;;69.57;54.17;;;;;22.50;99965.00;;;;2539619;23;20312;-57
2023/10/03 01:42:00;;;;;;;70.43;56.95;;;;;22.50;99950.00;;;;2513292;23;20210;-59
2023/10/03 01:43:01;;;;;;;70.23;54.93;;;;;22.50;99955.00;;;;2528096;23;20194;-59
2023/10/03 01:44:01;;;;;;;64.80;51.23;;;;;22.50;99956.00;;;;2538615;23;20249;-58
2023/10/03 01:45:02;;;;;;;66.80;55.07;;;;;22.50;99954.00;;;;2540033;23;20212;-59
2023/10/03 01:46:02;;;;;;;63.83;52.43;;;;;22.50;99951.00;;;;2537367;23;20190;-58
2023/10/03 01:47:03;;;;;;;67.00;53.70;;;;;22.50;99951.00;;;;2525867;23;20202;-57
2023/10/03 01:48:05;;;;;;;67.25;53.85;;;;;22.50;99948.00;;;;2539424;23;20696;-58
2023/10/03 01:49:06;;;;;;;66.43;52.33;;;;;22.50;99952.00;;;;2537246;23;20202;-58
2023/10/03 01:50:07;;;;;;;64.73;51.63;;;;;22.50;99955.00;;;;2526660;23;20253;-58
2023/10/03 01:51:08;;;;;;;67.97;54.25;;;;;22.50;99941.00;;;;2538588;23;20430;-58
2023/10/03 01:52:09;;;;;;;67.60;53.70;;;;;22.50;99927.00;;;;2525546;23;20528;-59
2023/10/03 01:53:09;;;;;;;67.80;55.07;;;;;22.50;99927.00;;;;2539895;23;20514;-60
2023/10/03 01:54:09;;;;;;;62.50;51.67;;;;;22.50;99933.00;;;;2535003;23;20801;-58
2023/10/03 01:55:17;;;;;;;63.23;53.27;;;;;22.50;99925.00;;;;2540310;23;20198;-57
2023/10/03 01:56:18;;;;;;;63.10;51.08;;;;;22.50;99916.00;;;;2540860;23;20288;-58
2023/10/03 01:57:18;;;;;;;67.37;54.57;;;;;22.50;99921.00;;;;2526294;23;20198;-58
2023/10/03 01:58:23;;;;;;;62.20;50.50;;;;;22.50;99917.00;;;;2539907;23;20194;-59
2023/10/03 01:59:24;;;;;;;64.15;53.90;;;;;22.50;99915.00;;;;2538667;23;20597;-59
2023/10/03 02:00:25;;;;;;;63.67;52.53;;;;;22.50;99906.00;;;;2538651;23;20239;-58
2023/10/03 02:01:26;;;;;;;67.30;52.97;;;;;22.50;99917.00;;;;2540474;23;20194;-57
2023/10/03 02:02:26;;;;;;;62.30;51.23;;;;;22.50;99919.00;;;;2525136;23;20524;-60
2023/10/03 02:03:29;;;;;;;62.90;50.70;;;;;22.50;99903.00;;;;2540695;23;20432;-57
2023/10/03 02:04:29;;;;;;;61.47;51.72;;;;;22.50;99910.00;;;;2540127;23;20202;-57
2023/10/03 02:05:30;;;;;;;62.00;50.03;;;;;22.50;99903.00;;;;2540551;23;20202;-59
2023/10/03 02:06:30;;;;;;;65.63;52.83;;;;;22.50;99904.00;;;;2540629;23;20200;-59
2023/10/03 02:07:31;;;;;;;59.53;48.10;;;;;22.50;99771.00;;;;2523767;23;20228;-57
2023/10/03 02:08:33;;;;;;;64.37;51.03;;;;;22.50;99895.00;;;;2537981;23;20962;-58
2023/10/03 02:09:34;;;;;;;63.10;49.75;;;;;22.50;99883.00;;;;2539013;23;20202;-59
2023/10/03 02:10:35;;;;;;;65.80;52.30;;;;;22.50;99882.00;;;;2537741;23;20229;-58
2023/10/03 02:11:35;;;;;;;60.63;50.87;;;;;22.50;99887.00;;;;2536498;23;20259;-58
2023/10/03 02:12:35;;;;;;;63.47;50.27;;;;;22.50;99873.00;;;;2523758;23;20559;-57
2023/10/03 02:13:38;;;;;;;61.77;49.40;;;;;22.50;99918.00;;;;2539844;23;20537;-58
2023/10/03 02:14:39;;;;;;;65.40;52.38;;;;;22.50;99870.00;;;;2539665;23;20202;-60
2023/10/03 02:15:40;;;;;;;63.80;51.03;;;;;22.50;99873.00;;;;2552475;23;20198;-59
2023/10/03 02:16:46;;;;;;;60.03;48.40;;;;;22.50;99870.00;;;;2536025;23;20437;-61
2023/10/03 02:17:49;;;;;;;63.35;51.03;;;;;22.50;99870.00;;;;2552442;23;20264;-58
2023/10/03 02:18:49;;;;;;;59.10;47.70;;;;;22.50;99883.00;;;;2551532;23;20312;-58
2023/10/03 02:19:49;;;;;;;63.33;48.27;;;;;22.50;99856.00;;;;2552431;23;20643;-57
2023/10/03 02:20:54;;;;;;;63.70;50.60;;;;;22.50;99867.00;;;;2546170;23;20210;-58
2023/10/03 02:21:59;;;;;;;57.50;48.20;;;;;22.50;99854.00;;;;2523452;23;20225;-58
2023/10/03 02:22:59;;;;;;;56.72;47.50;;;;;22.50;99855.00;;;;2528527;23;20833;-58
2023/10/03 02:24:00;;;;;;;56.40;47.33;;;;;22.50;99860.00;;;;2540033;23;20980;-58
2023/10/03 02:25:01;;;;;;;56.43;46.40;;;;;22.50;99850.00;;;;2552552;23;20205;-58
2023/10/03 02:26:10;;;;;;;54.22;44.00;;;;;22.50;99858.00;;;;2549121;23;20193;-57
2023/10/03 02:27:10;;;;;;;59.42;47.78;;;;;22.50;99850.00;;;;2537619;23;20232;-60
2023/10/03 02:28:13;;;;;;;58.40;46.00;;;;;22.50;99845.00;;;;2552131;23;20250;-59
2023/10/03 02:29:14;;;;;;;58.33;47.58;;;;;22.50;99849.00;;;;2549965;23;20216;-57
2023/10/03 02:30:19;;;;;;;55.43;45.83;;;;;22.50;99849.00;;;;2552373;23;20216;-58
2023/10/03 02:31:20;;;;;;;53.55;45.25;;;;;22.50;99847.00;;;;2552876;23;20698;-58
2023/10/03 02:32:20;;;;;;;54.13;44.73;;;;;22.50;99840.00;;;;2537556;23;20197;-58
2023/10/03 02:33:22;;;;;;;53.07;42.80;;;;;22.50;99845.00;;;;2550704;23;20912;-58
2023/10/03 02:34:23;;;;;;;55.13;45.72;;;;;22.50;99842.00;;;;2550462;23;20243;-57
2023/10/03 02:35:25;;;;;;;56.60;44.70;;;;;22.50;99841.00;;;;2550620;23;20197;-60
2023/10/03 02:36:25;;;;;;;55.60;46.03;;;;;22.50;99833.00;;;;2552396;23;20197;-59
2023/10/03 02:37:25;;;;;;;55.10;44.43;;;;;22.50;99845.00;;;;2529097;23;20197;-59
2023/10/03 02:38:30;;;;;;;53.87;43.80;;;;;22.50;99836.00;;;;2549766;23;20189;-59
2023/10/03 02:39:35;;;;;;;51.25;43.58;;;;;22.50;99826.00;;;;2548882;23;20193;-60
2023/10/03 02:40:36;;;;;;;54.33;45.03;;;;;22.50;99825.00;;;;2552417;23;20205;-58
2023/10/03 02:41:36;;;;;;;55.30;46.37;;;;;22.50;99825.00;;;;2552786;23;20274;-58
2023/10/03 02:42:38;;;;;;;59.90;44.93;;;;;22.50;99835.00;;;;2536900;23;20200;-58
2023/10/03 02:43:38;;;;;;;51.15;43.38;;;;;22.50;99828.00;;;;2548225;23;20197;-58
2023/10/03 02:44:39;;;;;;;53.23;43.37;;;;;22.50;99831.00;;;;2549932;23;20728;-58
2023/10/03 02:45:41;;;;;;;52.60;44.27;;;;;22.50;99829.00;;;;2552698;23;20194;-58
2023/10/03 02:46:42;;;;;;;56.95;46.95;;;;;22.00;99835.00;;;;2537440;23;20963;-61
2023/10/03 02:47:43;;;;;;;52.70;43.53;;;;;22.50;99822.00;;;;2552517;23;20228;-58
2023/10/03 02:48:43;;;;;;;56.05;46.00;;;;;22.50;99822.00;;;;2552658;23;20209;-59
2023/10/03 02:49:44;;;;;;;54.03;44.30;;;;;22.50;99826.00;;;;2548640;23;20288;-59
2023/10/03 02:50:46;;;;;;;50.10;42.27;;;;;22.50;99824.00;;;;2552195;23;20244;-58
2023/10/03 02:51:49;;;;;;;59.88;46.50;;;;;22.50;99825.00;;;;2537668;23;20707;-58
2023/10/03 02:52:50;;;;;;;49.03;41.75;;;;;22.50;99812.00;;;;2551577;23;20201;-58
2023/10/03 02:53:51;;;;;;;49.92;43.53;;;;;22.50;99818.00;;;;2548244;23;20208;-57
2023/10/03 02:54:51;;;;;;;56.57;46.13;;;;;22.50;99813.00;;;;2550115;23;20532;-57
2023/10/03 02:55:52;;;;;;;55.10;44.83;;;;;22.50;99811.00;;;;2539650;23;20213;-58
2023/10/03 02:56:53;;;;;;;55.07;45.90;;;;;22.50;99806.00;;;;2510627;23;20203;-58
2023/10/03 02:57:54;;;;;;;52.45;43.58;;;;;22.50;99804.00;;;;2537978;23;20202;-58
2023/10/03 02:58:55;;;;;;;53.30;43.50;;;;;22.50;99806.00;;;;2551424;23;20256;-57
2023/10/03 02:59:55;;;;;;;52.40;42.40;;;;;22.50;99790.00;;;;2550129;23;20251;-57
2023/10/03 03:00:56;;;;;;;52.20;42.70;;;;;22.50;99796.00;;;;2549923;23;20206;-57
2023/10/03 03:01:56;;;;;;;50.13;42.27;;;;;22.50;99799.00;;;;2537491;23;20209;-57
2023/10/03 03:02:56;;;;;;;50.63;41.73;;;;;22.50;99674.00;;;;2552554;23;20229;-57
2023/10/03 03:03:57;;;;;;;53.33;44.80;;;;;22.50;99791.00;;;;2552845;23;20536;-57
2023/10/03 03:04:59;;;;;;;51.63;41.03;;;;;22.50;99789.00;;;;2553184;23;20197;-57
2023/10/03 03:06:02;;;;;;;51.75;43.63;;;;;22.50;99800.00;;;;2535859;23;20684;-57
2023/10/03 03:07:04;;;;;;;49.97;42.75;;;;;21.90;99796.00;;;;2537474;23;20531;-58
2023/10/03 03:09:23;;;;;;;51.47;41.65;;;;;22.50;99808.00;;;;2539337;23;20198;-57
2023/10/03 03:10:24;;;;;;;47.70;41.00;;;;;22.50;99807.00;;;;2537319;23;20862;-57
2023/10/03 03:11:28;;;;;;;51.78;43.95;;;;;22.50;99801.00;;;;2541369;23;20511;-57
2023/10/03 03:12:28;;;;;;;51.70;42.22;;;;;22.50;99811.00;;;;2525715;23;20201;-57
2023/10/03 03:13:31;;;;;;;50.43;41.23;;;;;22.50;99804.00;;;;2541396;23;20297;-58
2023/10/03 03:14:32;;;;;;;49.55;40.47;;;;;22.50;99798.00;;;;2527644;23;20245;-57
2023/10/03 03:15:32;;;;;;;52.73;42.37;;;;;22.50;99795.00;;;;2537518;23;20202;-58
2023/10/03 03:16:34;;;;;;;51.20;43.10;;;;;22.50;99802.00;;;;2518145;23;20203;-57
2023/10/03 03:17:34;;;;;;;52.97;42.97;;;;;22.50;99788.00;;;;2510404;23;20225;-57
2023/10/03 03:18:39;;;;;;;49.97;41.40;;;;;22.50;99790.00;;;;2541307;23;20577;-57
2023/10/03 03:19:40;;;;;;;48.25;42.15;;;;;22.50;99793.00;;;;2540309;23;20198;-57
2023/10/03 03:20:43;;;;;;;50.00;41.60;;;;;22.50;99790.00;;;;2540302;23;20202;-57
2023/10/03 03:21:44;;;;;;;48.63;40.25;;;;;22.50;99807.00;;;;2524299;23;20624;-57
2023/10/03 03:22:47;;;;;;;49.08;40.08;;;;;22.50;99797.00;;;;2539735;23;20210;-57
2023/10/03 03:24:00;;;;;;;50.35;41.13;;;;;22.50;99803.00;;;;2538632;23;20217;-57
2023/10/03 03:25:01;;;;;;;52.03;41.05;;;;;22.50;99802.00;;;;2527053;23;20222;-57
2023/10/03 03:27:12;;;;;;;48.72;39.67;;;;;22.50;99869.00;;;;2525543;23;20295;-57
2023/10/03 03:28:13;;;;;;;48.03;40.33;;;;;22.50;99796.00;;;;2539044;23;20645;-57
2023/10/03 03:29:20;;;;;;;49.30;40.13;;;;;22.50;99799.00;;;;2539342;23;20261;-57
2023/10/03 03:31:31;;;;;;;47.83;39.83;;;;;22.50;99806.00;;;;2540366;23;20543;-57
2023/10/03 03:32:31;;;;;;;46.75;38.13;;;;;22.50;99805.00;;;;2526227;23;21079;-58
2023/10/03 03:33:32;;;;;;;44.43;37.53;;;;;22.50;99788.00;;;;2540476;23;20202;-57
2023/10/03 03:34:32;;;;;;;44.70;39.03;;;;;22.50;99785.00;;;;2541034;23;20203;-57
2023/10/03 03:35:38;;;;;;;49.40;41.03;;;;;22.50;99788.00;;;;2537711;23;20236;-57
2023/10/03 03:36:40;;;;;;;46.20;38.80;;;;;22.50;99793.00;;;;2539165;23;20206;-60
2023/10/03 03:37:40;;;;;;;47.38;39.33;;;;;22.50;99810.00;;;;2541219;23;20202;-57
2023/10/03 03:38:41;;;;;;;46.23;37.37;;;;;22.50;99787.00;;;;2530622;23;20306;-57
2023/10/03 03:39:54;;;;;;;45.60;37.53;;;;;22.50;99779.00;;;;2536076;23;20649;-58
2023/10/03 03:40:59;;;;;;;48.45;37.85;;;;;22.50;99778.00;;;;2540073;23;20529;-57
2023/10/03 03:41:59;;;;;;;45.63;38.20;;;;;21.70;99811.00;;;;2525329;23;20207;-57
2023/10/03 03:43:00;;;;;;;46.73;38.10;;;;;22.50;99791.00;;;;2528200;23;20194;-58
2023/10/03 03:44:01;;;;;;;46.17;39.30;;;;;22.50;99788.00;;;;2527423;23;20199;-57
2023/10/03 03:45:01;;;;;;;42.70;37.23;;;;;22.50;99795.00;;;;2540080;23;20252;-57
2023/10/03 03:46:02;;;;;;;45.27;38.23;;;;;22.50;99797.00;;;;2540558;23;20209;-57
2023/10/03 03:47:04;;;;;;;43.77;36.47;;;;;22.50;99788.00;;;;2525498;23;20237;-57
2023/10/03 03:48:06;;;;;;;44.45;38.20;;;;;22.50;99785.00;;;;2540929;23;20692;-57
2023/10/03 03:49:09;;;;;;;48.08;38.72;;;;;22.50;99797.00;;;;2541424;23;20199;-57
2023/10/03 03:50:10;;;;;;;43.30;36.38;;;;;22.50;99799.00;;;;2540919;23;20198;-57
2023/10/03 03:51:12;;;;;;;45.00;36.23;;;;;22.50;99804.00;;;;2541612;23;20584;-57
2023/10/03 03:52:16;;;;;;;47.15;35.03;;;;;22.50;99817.00;;;;2526871;23;20197;-57
2023/10/03 03:53:18;;;;;;;40.17;35.20;;;;;22.50;99879.00;;;;2539754;23;20269;-58
2023/10/03 03:54:19;;;;;;;47.90;39.05;;;;;22.50;99824.00;;;;2541413;23;20198;-60
2023/10/03 03:55:21;;;;;;;42.72;35.65;;;;;22.50;99826.00;;;;2540441;23;20190;-57
2023/10/03 03:56:22;;;;;;;41.22;35.10;;;;;22.50;99821.00;;;;2533538;23;20216;-57
2023/10/03 03:57:22;;;;;;;41.57;32.50;;;;;22.50;99826.00;;;;2525271;23;20202;-57
2023/10/03 03:58:23;;;;;;;43.10;36.33;;;;;22.50;99820.00;;;;2540992;23;20198;-58
2023/10/03 03:59:24;;;;;;;43.93;34.90;;;;;22.50;99813.00;;;;2539992;23;20256;-58
2023/10/03 04:00:26;;;;;;;43.43;33.97;;;;;22.50;99858.00;;;;2540311;23;20198;-57
2023/10/03 04:01:26;;;;;;;39.75;34.05;;;;;22.50;99831.00;;;;2539194;23;20645;-58
2023/10/03 04:02:27;;;;;;;42.47;34.27;;;;;22.50;99824.00;;;;2524160;23;20186;-57
2023/10/03 04:03:34;;;;;;;43.83;34.63;;;;;22.50;99825.00;;;;2540086;23;20195;-58
2023/10/03 04:04:34;;;;;;;41.65;34.90;;;;;22.50;99826.00;;;;2540909;23;20933;-58
2023/10/03 04:05:35;;;;;;;40.47;34.77;;;;;22.50;99822.00;;;;2541468;23;20194;-57
2023/10/03 04:06:36;;;;;;;40.95;35.90;;;;;22.50;99828.00;;;;2540773;23;20194;-57
2023/10/03 04:07:38;;;;;;;39.67;33.10;;;;;22.50;99822.00;;;;2527229;23;20190;-58
2023/10/03 04:08:39;;;;;;;41.95;33.22;;;;;22.50;99824.00;;;;2537847;23;20213;-58
2023/10/03 04:09:39;;;;;;;46.03;36.72;;;;;22.50;99819.00;;;;2538112;23;20210;-57
2023/10/03 04:10:42;;;;;;;43.90;36.00;;;;;22.50;99821.00;;;;2540011;23;20198;-57
2023/10/03 04:11:43;;;;;;;42.45;33.75;;;;;22.50;99826.00;;;;2523340;23;20256;-57
2023/10/03 04:12:43;;;;;;;40.10;34.20;;;;;22.50;99827.00;;;;2539740;23;20649;-57
2023/10/03 04:13:49;;;;;;;39.10;33.00;;;;;22.50;99831.00;;;;2541021;23;20194;-57
2023/10/03 04:14:50;;;;;;;41.42;33.72;;;;;22.50;99833.00;;;;2541271;23;20197;-58
2023/10/03 04:15:50;;;;;;;41.53;33.37;;;;;22.50;99832.00;;;;2537234;23;20217;-58
2023/10/03 04:16:51;;;;;;;44.53;35.33;;;;;22.50;99834.00;;;;2525979;23;20208;-58
2023/10/03 04:17:51;;;;;;;41.30;35.87;;;;;22.50;99829.00;;;;2541600;23;20198;-58
2023/10/03 04:18:52;;;;;;;37.13;31.20;;;;;22.50;99827.00;;;;2537636;23;20198;-58
2023/10/03 04:19:52;;;;;;;38.50;30.63;;;;;22.50;99830.00;;;;2540876;23;20260;-57
2023/10/03 04:20:53;;;;;;;38.37;30.80;;;;;22.50;99834.00;;;;2540683;23;20205;-57
2023/10/03 04:21:54;;;;;;;42.95;34.40;;;;;22.50;99832.00;;;;2527235;23;20273;-57
2023/10/03 04:22:55;;;;;;;38.45;29.23;;;;;22.50;99836.00;;;;2538937;23;20194;-58
2023/10/03 04:23:56;;;;;;;37.77;32.53;;;;;22.50;99839.00;;;;2541075;23;20201;-57
2023/10/03 04:24:56;;;;;;;35.30;29.50;;;;;22.50;99834.00;;;;2541518;23;20217;-57
2023/10/03 04:25:56;;;;;;;39.87;33.10;;;;;22.50;99833.00;;;;2540944;23;20425;-59
2023/10/03 04:26:58;;;;;;;38.20;30.30;;;;;22.50;99840.00;;;;2519370;23;20224;-58
2023/10/03 04:27:58;;;;;;;36.35;31.00;;;;;22.50;99839.00;;;;2540047;23;20191;-57
2023/10/03 04:28:59;;;;;;;38.47;31.13;;;;;22.50;99837.00;;;;2539742;23;20274;-57
2023/10/03 04:30:00;;;;;;;37.30;30.00;;;;;22.50;99831.00;;;;2536383;23;20190;-58
2023/10/03 04:31:00;;;;;;;37.67;30.77;;;;;22.50;99836.00;;;;2540923;23;20195;-58
2023/10/03 04:32:01;;;;;;;37.90;30.33;;;;;22.50;99837.00;;;;2522963;23;20249;-58
2023/10/03 04:33:02;;;;;;;34.58;29.15;;;;;22.50;99831.00;;;;2540170;23;20257;-57
2023/10/03 04:34:02;;;;;;;39.23;31.67;;;;;22.50;99832.00;;;;2541583;23;20672;-57
2023/10/03 04:35:09;;;;;;;40.63;33.10;;;;;22.50;99825.00;;;;2540640;23;20194;-57
2023/10/03 04:36:10;;;;;;;35.45;29.52;;;;;22.50;99825.00;;;;2541126;23;20256;-58
2023/10/03 04:37:10;;;;;;;39.07;30.20;;;;;22.50;99835.00;;;;2526447;23;20202;-57
2023/10/03 04:38:14;;;;;;;38.70;30.90;;;;;22.50;99837.00;;;;2540394;23;20212;-58
2023/10/03 04:39:15;;;;;;;40.47;32.53;;;;;22.50;99826.00;;;;2540373;23;20261;-57
2023/10/03 04:40:28;;;;;;;36.23;29.40;;;;;22.50;99826.00;;;;2540656;23;20191;-58
2023/10/03 04:41:28;;;;;;;36.83;30.23;;;;;22.50;99835.00;;;;2540985;23;20213;-58
2023/10/03 04:42:28;;;;;;;36.97;27.87;;;;;22.50;99831.00;;;;2525940;23;20204;-57
2023/10/03 04:43:31;;;;;;;36.97;29.23;;;;;22.50;99826.00;;;;2541487;23;20202;-58
2023/10/03 04:44:34;;;;;;;36.47;29.33;;;;;22.50;99833.00;;;;2540697;23;20497;-58
2023/10/03 04:45:35;;;;;;;34.00;27.58;;;;;22.50;99834.00;;;;2540634;23;20237;-57
2023/10/03 04:46:35;;;;;;;33.03;27.45;;;;;22.50;99835.00;;;;2540668;23;20268;-57
2023/10/03 04:47:41;;;;;;;37.83;30.93;;;;;22.50;99828.00;;;;2527501;23;20198;-57
2023/10/03 04:48:42;;;;;;;34.35;27.10;;;;;22.50;99835.00;;;;2540782;23;20645;-57
2023/10/03 04:49:42;;;;;;;36.70;28.63;;;;;22.50;99833.00;;;;2537256;23;20205;-58
2023/10/03 04:50:42;;;;;;;35.80;28.30;;;;;22.50;99833.00;;;;2540867;23;20272;-57
2023/10/03 04:51:45;;;;;;;33.47;27.70;;;;;22.50;99840.00;;;;2526882;23;20515;-58
2023/10/03 04:52:49;;;;;;;37.47;33.03;;;;;22.50;99845.00;;;;2539553;23;20648;-57
2023/10/03 04:53:49;;;;;;;35.30;28.05;;;;;22.50;99833.00;;;;2528526;23;20875;-57
2023/10/03 04:54:50;;;;;;;35.10;28.60;;;;;22.50;99835.00;;;;2540582;23;20201;-58
2023/10/03 04:55:51;;;;;;;33.35;28.27;;;;;22.50;99829.00;;;;2538845;23;20219;-58
2023/10/03 04:56:52;;;;;;;35.42;27.48;;;;;22.50;99836.00;;;;2526935;23;20550;-57
2023/10/03 04:57:53;;;;;;;34.90;28.90;;;;;21.80;99828.00;;;;2541001;23;20191;-58
2023/10/03 04:58:55;;;;;;;38.00;28.97;;;;;22.50;99837.00;;;;2540448;23;20261;-57
2023/10/03 04:59:56;;;;;;;34.50;28.98;;;;;22.50;99841.00;;;;2540914;23;20205;-58
2023/10/03 05:00:56;;;;;;;31.43;27.43;;;;;22.50;99844.00;;;;2537575;23;20198;-58
2023/10/03 05:01:56;;;;;;;36.80;28.53;;;;;22.50;99856.00;;;;2525390;23;20425;-57
2023/10/03 05:02:57;;;;;;;35.50;30.37;;;;;22.50;99837.00;;;;2549819;23;20217;-57
2023/10/03 05:03:57;;;;;;;35.40;29.30;;;;;22.50;99847.00;;;;2546616;23;20486;-58